EW5754 Weather Reports


Display with metric or nautical units.
time (UTC)temp
F
wind
direction
speed
MPH
gust
MPH
rain 1hr
in
rain 24hr
in
rain mn
in
humidity
%
barometer
mb
20191206231517 32 1 0.0 1.0 0.00 0.00 0.00 64 1027.7
20191206230015 33 347 0.0 0.0 0.00 0.00 0.00 63 1027.7
20191206224519 33 347 0.0 2.0 0.00 0.00 0.00 62 1027.6
20191206223006 34 358 0.0 3.0 0.00 0.00 0.00 60 1027.5
20191206221509 36 344 0.0 2.0 0.00 0.00 0.00 59 1027.4
20191206220007 36 1 0.0 2.0 0.00 0.00 0.00 58 1027.3
20191206214513 36 330 1.0 4.0 0.00 0.00 0.00 57 1027.2
20191206213007 37 306 0.0 5.0 0.00 0.00 0.00 57 1026.9
20191206211711 37 332 0.0 5.0 0.00 0.00 0.00 57 1026.7
20191206210116 37 297 1.0 5.0 0.00 0.00 0.00 55 1026.5
20191206204739 37 281 2.0 6.0 0.00 0.00 0.00 56 1026.6
20191206203203 37 354 2.0 5.0 0.00 0.00 0.00 58 1026.4
20191206201813 37 358 2.0 7.0 0.00 0.00 0.00 58 1026.1
20191206200209 37 315 2.0 6.0 0.00 0.00 0.00 58 1026.1
20191206194704 36 309 5.0 9.0 0.00 0.00 0.00 59 1026.0
20191206191654 36 1 9.0 14.0 0.00 0.00 0.00 57 1026.2
20191206190203 36 334 4.0 8.0 0.00 0.00 0.00 59 1026.1
20191206184646 36 326 1.0 9.0 0.00 0.00 0.00 59 1026.1
20191206183305 35 33 1.0 11.0 0.00 0.00 0.00 63 1026.1
20191206181638 35 15 3.0 15.0 0.00 0.00 0.00 65 1026.2
20191206180149 35 2 1.0 11.0 0.00 0.00 0.00 65 1026.2
20191206174630 35 1 7.0 13.0 0.00 0.00 0.00 66 1026.2
20191206173052 34 357 7.0 18.0 0.00 0.00 0.00 65 1026.2
20191206171651 34 39 11.0 18.0 0.00 0.00 0.00 66 1026.1
20191206170133 34 357 7.0 17.0 0.00 0.00 0.00 66 1026.1
20191206164630 33 40 11.0 16.0 0.00 0.00 0.00 67 1026.3
20191206163144 33 16 12.0 18.0 0.00 0.00 0.00 68 1026.3
20191206161615 33 10 8.0 16.0 0.00 0.00 0.00 69 1026.3
20191206160134 33 22 9.0 16.0 0.00 0.00 0.00 70 1025.9
20191206154605 33 4 7.0 15.0 0.00 0.00 0.00 71 1025.9
20191206153116 32 23 6.0 20.0 0.00 0.00 0.00 72 1025.7
20191206151544 32 314 8.0 17.0 0.00 0.00 0.00 72 1025.5
20191206150043 32 2 5.0 14.0 0.00 0.00 0.00 75 1025.2
20191206144540 32 8 9.0 15.0 0.00 0.00 0.00 75 1025.0
20191206143047 32 16 6.0 14.0 0.00 0.00 0.00 76 1024.9
20191206141533 31 28 5.0 13.0 0.00 0.00 0.00 76 1024.6
20191206140037 31 19 7.0 13.0 0.00 0.00 0.00 78 1024.4
20191206134525 31 294 2.0 10.0 0.00 0.00 0.00 79 1024.1
20191206133021 31 20 6.0 11.0 0.00 0.00 0.00 78 1023.8
20191206131514 32 43 7.0 18.0 0.00 0.00 0.00 78 1023.6
20191206130012 32 37 5.0 10.0 0.00 0.00 0.00 81 1023.2
20191206124504 32 337 2.0 9.0 0.00 0.00 0.00 83 1022.9
20191206123005 32 33 3.0 11.0 0.00 0.00 0.00 85 1022.6
20191206121749 31 68 6.0 12.0 0.00 0.00 0.00 86 1022.4
20191206120142 31 6 4.0 12.0 0.00 0.00 0.00 86 1022.2
20191206114642 31 3 7.0 15.0 0.00 0.00 0.00 86 1021.8
20191206113149 32 11 9.0 16.0 0.00 0.00 0.00 85 1021.4
20191206111643 32 346 11.0 22.0 0.00 0.00 0.00 84 1021.1
20191206110109 33 21 14.0 20.0 0.00 0.00 0.00 83 1020.8
20191206104623 33 181 6.0 12.0 0.00 0.00 0.00 84 1020.5
20191206103126 33 39 9.0 16.0 0.00 0.00 0.00 83 1020.1
20191206101622 33 19 10.0 24.0 0.00 0.00 0.00 82 1019.7
20191206100116 33 37 12.0 21.0 0.00 0.00 0.00 84 1019.6
20191206094538 34 5 9.0 17.0 0.00 0.00 0.00 84 1019.4
20191206093054 35 345 12.0 26.0 0.00 0.00 0.00 82 1019.1
20191206091555 35 23 11.0 20.0 0.00 0.00 0.00 82 1018.8
20191206090057 35 8 9.0 21.0 0.00 0.00 0.00 84 1018.5
20191206084521 36 49 7.0 24.0 0.00 0.00 0.00 85 1018.3
20191206083031 36 18 8.0 21.0 0.00 0.00 0.00 85 1017.9
20191206081531 36 94 9.0 19.0 0.00 0.00 0.00 86 1017.5
20191206080016 37 352 8.0 20.0 0.00 0.00 0.00 86 1017.3
20191206074506 37 25 5.0 14.0 0.00 0.00 0.00 88 1016.9
20191206073001 37 82 3.0 10.0 0.00 0.00 0.00 88 1016.5
20191206071653 37 334 3.0 13.0 0.00 0.00 0.00 89 1016.0
20191206070156 37 120 2.0 11.0 0.00 0.00 0.00 89 1015.5
20191206064623 37 29 2.0 7.0 0.00 0.00 0.00 90 1015.2
20191206063131 37 252 1.0 6.0 0.00 0.00 0.00 90 1015.0
20191206061602 37 330 2.0 6.0 0.00 0.00 0.00 90 1014.7
20191206060127 38 316 4.0 5.0 0.00 0.00 0.00 90 1014.5
20191206054617 38 307 3.0 6.0 0.00 0.00 0.00 90 1014.2
20191206053149 38 288 2.0 4.0 0.00 0.00 0.00 89 1014.1
20191206051605 39 275 4.0 5.0 0.00 0.00 0.00 89 1014.0
20191206050241 39 299 1.0 3.0 0.00 0.00 0.00 87 1013.9
20191206044628 40 274 3.0 7.0 0.00 0.00 0.00 86 1013.7
20191206043118 40 198 4.0 8.0 0.00 0.00 0.00 86 1013.5
20191206041558 40 252 3.0 7.0 0.00 0.00 0.00 86 1013.3
20191206040127 40 230 3.0 10.0 0.00 0.00 0.00 86 1013.1
20191206034710 40 231 3.0 7.0 0.00 0.00 0.00 86 1013.1
20191206033051 40 226 1.0 5.0 0.00 0.00 0.00 87 1013.1
20191206031651 40 179 2.0 8.0 0.00 0.00 0.00 87 1013.2
20191206030103 40 213 3.0 6.0 0.00 0.00 0.00 86 1013.3
20191206024600 40 221 3.0 7.0 0.00 0.00 0.00 86 1013.3
20191206023129 40 238 3.0 8.0 0.00 0.00 0.00 86 1013.4
20191206021555 40 236 3.0 8.0 0.00 0.00 0.00 86 1013.2
20191206020114 40 170 3.0 8.0 0.00 0.00 0.00 86 1013.3
20191206014626 39 202 2.0 5.0 0.00 0.00 0.00 86 1013.5
20191206013038 40 207 2.0 4.0 0.00 0.00 0.00 84 1013.6
20191206011620 40 199 2.0 4.0 0.00 0.00 0.00 84 1013.6
20191206010047 40 194 1.0 3.0 0.00 0.00 0.00 83 1013.8
20191206004551 40 176 2.0 5.0 0.00 0.00 0.00 83 1013.7
20191206003045 40 175 0.0 3.0 0.00 0.00 0.00 83 1013.7
20191206001602 40 177 2.0 4.0 0.00 0.00 0.00 83 1013.6
20191206000046 40 162 1.0 4.0 0.00 0.00 0.00 82 1013.6
20191205234600 41 249 1.0 4.0 0.00 0.00 0.00 81 1013.9
20191205233107 41 276 1.0 4.0 0.00 0.00 0.00 80 1013.8